sensor_id;sensor_type;location;lat;lon;timestamp;pressure;altitude;pressure_sealevel;temperature;humidity
7930;BME280;4010;42.698;23.124;2022-07-22T00:01:32;118349.16;;;-140.64;98.63
7930;BME280;4010;42.698;23.124;2022-07-22T00:03:58;118349.16;;;-140.64;98.86
7930;BME280;4010;42.698;23.124;2022-07-22T00:06:26;118349.16;;;-140.64;98.82
7930;BME280;4010;42.698;23.124;2022-07-22T00:08:55;118349.16;;;-140.64;99.36
7930;BME280;4010;42.698;23.124;2022-07-22T00:11:22;118349.16;;;-140.64;98.29
7930;BME280;4010;42.698;23.124;2022-07-22T00:13:49;118349.16;;;-140.64;99.19
7930;BME280;4010;42.698;23.124;2022-07-22T00:16:16;118349.16;;;-140.64;99.43
7930;BME280;4010;42.698;23.124;2022-07-22T00:18:42;118349.16;;;-140.64;99.77
7930;BME280;4010;42.698;23.124;2022-07-22T00:21:09;118349.16;;;-140.64;100.00
7930;BME280;4010;42.698;23.124;2022-07-22T00:23:36;118349.16;;;-140.64;100.00
7930;BME280;4010;42.698;23.124;2022-07-22T00:26:04;118349.16;;;-140.64;100.00
7930;BME280;4010;42.698;23.124;2022-07-22T00:28:31;118349.16;;;-140.64;100.00
7930;BME280;4010;42.698;23.124;2022-07-22T00:30:58;118349.16;;;-140.64;100.00
7930;BME280;4010;42.698;23.124;2022-07-22T00:33:25;118349.16;;;-140.64;100.00
7930;BME280;4010;42.698;23.124;2022-07-22T00:35:51;118349.16;;;-140.64;100.00
7930;BME280;4010;42.698;23.124;2022-07-22T00:38:18;118349.16;;;-140.64;100.00
7930;BME280;4010;42.698;23.124;2022-07-22T00:40:45;118349.16;;;-140.64;100.00
7930;BME280;4010;42.698;23.124;2022-07-22T00:43:13;118349.16;;;-140.64;100.00
7930;BME280;4010;42.698;23.124;2022-07-22T00:45:40;118349.16;;;-140.64;100.00
7930;BME280;4010;42.698;23.124;2022-07-22T00:48:07;118349.16;;;-140.64;100.00
7930;BME280;4010;42.698;23.124;2022-07-22T00:50:33;118349.16;;;-140.64;100.00
7930;BME280;4010;42.698;23.124;2022-07-22T00:53:01;118349.16;;;-140.64;100.00
7930;BME280;4010;42.698;23.124;2022-07-22T00:55:28;118349.16;;;-140.64;100.00
7930;BME280;4010;42.698;23.124;2022-07-22T00:57:55;118349.16;;;-140.64;100.00
7930;BME280;4010;42.698;23.124;2022-07-22T01:00:23;118349.16;;;-140.64;100.00
7930;BME280;4010;42.698;23.124;2022-07-22T01:02:50;118349.16;;;-140.64;100.00
7930;BME280;4010;42.698;23.124;2022-07-22T01:05:16;118349.16;;;-140.64;100.00
7930;BME280;4010;42.698;23.124;2022-07-22T01:07:44;118349.16;;;-140.64;100.00
7930;BME280;4010;42.698;23.124;2022-07-22T01:10:10;118349.16;;;-140.64;100.00
7930;BME280;4010;42.698;23.124;2022-07-22T01:12:37;118349.16;;;-140.64;100.00
7930;BME280;4010;42.698;23.124;2022-07-22T01:15:05;118349.16;;;-140.64;100.00
7930;BME280;4010;42.698;23.124;2022-07-22T01:17:33;118349.16;;;-140.64;100.00
7930;BME280;4010;42.698;23.124;2022-07-22T01:20:03;118349.16;;;-140.64;100.00
7930;BME280;4010;42.698;23.124;2022-07-22T01:22:31;118349.16;;;-140.64;100.00
7930;BME280;4010;42.698;23.124;2022-07-22T01:24:57;118349.16;;;-140.64;100.00
7930;BME280;4010;42.698;23.124;2022-07-22T01:27:24;118349.16;;;-140.64;100.00
7930;BME280;4010;42.698;23.124;2022-07-22T01:29:51;118349.16;;;-140.64;100.00
7930;BME280;4010;42.698;23.124;2022-07-22T01:32:18;118349.16;;;-140.64;100.00
7930;BME280;4010;42.698;23.124;2022-07-22T01:34:44;118349.16;;;-140.64;100.00
7930;BME280;4010;42.698;23.124;2022-07-22T01:37:12;118349.16;;;-140.64;100.00
7930;BME280;4010;42.698;23.124;2022-07-22T01:39:39;118349.16;;;-140.64;100.00
7930;BME280;4010;42.698;23.124;2022-07-22T01:42:06;118349.16;;;-140.64;100.00
7930;BME280;4010;42.698;23.124;2022-07-22T01:44:33;118349.16;;;-140.64;100.00
7930;BME280;4010;42.698;23.124;2022-07-22T01:47:00;118349.16;;;-140.64;100.00
7930;BME280;4010;42.698;23.124;2022-07-22T01:49:26;118349.16;;;-140.64;100.00
7930;BME280;4010;42.698;23.124;2022-07-22T01:51:53;118349.16;;;-140.64;100.00
7930;BME280;4010;42.698;23.124;2022-07-22T01:54:22;118349.16;;;-140.64;100.00
7930;BME280;4010;42.698;23.124;2022-07-22T01:56:48;118349.16;;;-140.64;100.00
7930;BME280;4010;42.698;23.124;2022-07-22T01:59:15;118349.16;;;-140.64;100.00
7930;BME280;4010;42.698;23.124;2022-07-22T02:01:42;118349.16;;;-140.64;100.00
7930;BME280;4010;42.698;23.124;2022-07-22T02:04:09;118349.16;;;-140.64;100.00
7930;BME280;4010;42.698;23.124;2022-07-22T02:06:35;118349.16;;;-140.64;100.00
7930;BME280;4010;42.698;23.124;2022-07-22T02:09:02;118349.16;;;-140.64;100.00
7930;BME280;4010;42.698;23.124;2022-07-22T02:11:30;118349.16;;;-140.64;100.00
7930;BME280;4010;42.698;23.124;2022-07-22T02:13:57;118349.16;;;-140.64;100.00
7930;BME280;4010;42.698;23.124;2022-07-22T02:16:24;118349.16;;;-140.64;100.00
7930;BME280;4010;42.698;23.124;2022-07-22T02:18:51;118349.16;;;-140.64;100.00
7930;BME280;4010;42.698;23.124;2022-07-22T02:21:18;118349.16;;;-140.64;100.00
7930;BME280;4010;42.698;23.124;2022-07-22T02:23:45;118349.16;;;-140.64;100.00
7930;BME280;4010;42.698;23.124;2022-07-22T02:26:22;118349.16;;;-140.64;100.00
7930;BME280;4010;42.698;23.124;2022-07-22T02:28:50;118349.16;;;-140.64;100.00
7930;BME280;4010;42.698;23.124;2022-07-22T02:31:17;118349.16;;;-140.64;100.00
7930;BME280;4010;42.698;23.124;2022-07-22T02:33:45;118349.16;;;-140.64;100.00
7930;BME280;4010;42.698;23.124;2022-07-22T02:36:12;118349.16;;;-140.64;100.00
7930;BME280;4010;42.698;23.124;2022-07-22T02:38:39;118349.16;;;-140.64;100.00
7930;BME280;4010;42.698;23.124;2022-07-22T02:41:06;118349.16;;;-140.64;100.00
7930;BME280;4010;42.698;23.124;2022-07-22T02:43:32;118349.16;;;-140.64;100.00
7930;BME280;4010;42.698;23.124;2022-07-22T02:46:01;118349.16;;;-140.64;100.00
7930;BME280;4010;42.698;23.124;2022-07-22T02:48:27;118349.16;;;-140.64;100.00
7930;BME280;4010;42.698;23.124;2022-07-22T02:50:54;118349.16;;;-140.64;100.00
7930;BME280;4010;42.698;23.124;2022-07-22T02:53:21;118349.16;;;-140.64;100.00
7930;BME280;4010;42.698;23.124;2022-07-22T02:55:47;118349.16;;;-140.64;100.00
7930;BME280;4010;42.698;23.124;2022-07-22T02:58:14;118349.16;;;-140.64;100.00
7930;BME280;4010;42.698;23.124;2022-07-22T03:00:41;118349.16;;;-140.64;100.00
7930;BME280;4010;42.698;23.124;2022-07-22T03:03:09;118349.16;;;-140.64;100.00
7930;BME280;4010;42.698;23.124;2022-07-22T03:05:36;118349.16;;;-140.64;100.00
7930;BME280;4010;42.698;23.124;2022-07-22T03:08:03;118349.16;;;-140.64;100.00
7930;BME280;4010;42.698;23.124;2022-07-22T03:10:30;118349.16;;;-140.64;100.00
7930;BME280;4010;42.698;23.124;2022-07-22T03:12:56;118349.16;;;-140.64;100.00
7930;BME280;4010;42.698;23.124;2022-07-22T03:15:23;118349.16;;;-140.64;100.00
7930;BME280;4010;42.698;23.124;2022-07-22T03:17:50;118349.16;;;-140.64;100.00
7930;BME280;4010;42.698;23.124;2022-07-22T03:20:18;118349.16;;;-140.64;100.00
7930;BME280;4010;42.698;23.124;2022-07-22T03:22:45;118349.16;;;-140.64;100.00
7930;BME280;4010;42.698;23.124;2022-07-22T03:25:11;118349.16;;;-140.64;100.00
7930;BME280;4010;42.698;23.124;2022-07-22T03:27:38;118349.16;;;-140.64;100.00
7930;BME280;4010;42.698;23.124;2022-07-22T03:30:06;118349.16;;;-140.64;100.00
7930;BME280;4010;42.698;23.124;2022-07-22T03:32:33;118349.16;;;-140.64;100.00
7930;BME280;4010;42.698;23.124;2022-07-22T03:35:00;118349.16;;;-140.64;100.00
7930;BME280;4010;42.698;23.124;2022-07-22T03:37:28;118349.16;;;-140.64;100.00
7930;BME280;4010;42.698;23.124;2022-07-22T03:40:24;118349.16;;;-140.64;100.00
7930;BME280;4010;42.698;23.124;2022-07-22T03:42:50;118349.16;;;-140.64;100.00
7930;BME280;4010;42.698;23.124;2022-07-22T03:45:17;118349.16;;;-140.64;100.00
7930;BME280;4010;42.698;23.124;2022-07-22T03:47:44;118349.16;;;-140.64;92.07
7930;BME280;4010;42.698;23.124;2022-07-22T03:50:11;118349.16;;;-140.64;85.25
7930;BME280;4010;42.698;23.124;2022-07-22T03:52:39;118349.16;;;-140.64;78.96
7930;BME280;4010;42.698;23.124;2022-07-22T03:55:06;118349.16;;;-140.64;74.02
7930;BME280;4010;42.698;23.124;2022-07-22T03:57:34;118349.16;;;-140.64;68.95
7930;BME280;4010;42.698;23.124;2022-07-22T04:00:06;118349.16;;;-140.64;64.32
7930;BME280;4010;42.698;23.124;2022-07-22T04:02:33;118349.16;;;-140.64;61.48
7930;BME280;4010;42.698;23.124;2022-07-22T04:04:59;118349.16;;;-140.64;58.04
7930;BME280;4010;42.698;23.124;2022-07-22T04:07:51;118349.16;;;-140.64;57.38
7930;BME280;4010;42.698;23.124;2022-07-22T04:10:47;118349.16;;;-140.64;52.88
7930;BME280;4010;42.698;23.124;2022-07-22T04:13:14;118349.16;;;-140.64;52.94
7930;BME280;4010;42.698;23.124;2022-07-22T04:15:40;118349.16;;;-140.64;52.96
7930;BME280;4010;42.698;23.124;2022-07-22T04:18:07;118349.16;;;-140.64;49.76
7930;BME280;4010;42.698;23.124;2022-07-22T04:20:34;118349.16;;;-140.64;47.56
7930;BME280;4010;42.698;23.124;2022-07-22T04:23:02;118349.16;;;-140.64;50.48
7930;BME280;4010;42.698;23.124;2022-07-22T04:25:29;118349.16;;;-140.64;49.60
7930;BME280;4010;42.698;23.124;2022-07-22T04:27:55;118349.16;;;-140.64;48.34
7930;BME280;4010;42.698;23.124;2022-07-22T04:30:41;118349.16;;;-140.64;45.51
7930;BME280;4010;42.698;23.124;2022-07-22T04:33:07;118349.16;;;-140.64;44.66
7930;BME280;4010;42.698;23.124;2022-07-22T04:35:34;118349.16;;;-140.64;45.97
7930;BME280;4010;42.698;23.124;2022-07-22T04:38:02;118349.16;;;-140.64;46.10
7930;BME280;4010;42.698;23.124;2022-07-22T04:40:31;118349.16;;;-140.64;45.03
7930;BME280;4010;42.698;23.124;2022-07-22T04:42:58;118349.16;;;-140.64;42.07
7930;BME280;4010;42.698;23.124;2022-07-22T04:45:25;118349.16;;;-140.64;42.29
7930;BME280;4010;42.698;23.124;2022-07-22T04:47:51;118349.16;;;-140.64;40.69
7930;BME280;4010;42.698;23.124;2022-07-22T04:50:18;118349.16;;;-140.64;41.96
7930;BME280;4010;42.698;23.124;2022-07-22T04:52:45;118349.16;;;-140.64;38.40
7930;BME280;4010;42.698;23.124;2022-07-22T04:55:13;118349.16;;;-140.64;37.55
7930;BME280;4010;42.698;23.124;2022-07-22T04:57:40;118349.16;;;-140.64;36.81
7930;BME280;4010;42.698;23.124;2022-07-22T05:00:07;118349.16;;;-140.64;37.87
7930;BME280;4010;42.698;23.124;2022-07-22T05:02:34;118349.16;;;-140.64;37.32
7930;BME280;4010;42.698;23.124;2022-07-22T05:05:01;118349.16;;;-140.64;36.63
7930;BME280;4010;42.698;23.124;2022-07-22T05:07:28;118349.16;;;-140.64;39.26
7930;BME280;4010;42.698;23.124;2022-07-22T05:09:54;118349.16;;;-140.64;36.57
7930;BME280;4010;42.698;23.124;2022-07-22T05:12:22;118349.16;;;-140.64;36.09
7930;BME280;4010;42.698;23.124;2022-07-22T05:14:49;118349.16;;;-140.64;38.90
7930;BME280;4010;42.698;23.124;2022-07-22T05:17:16;118349.16;;;-140.64;41.40
7930;BME280;4010;42.698;23.124;2022-07-22T05:19:43;118349.16;;;-140.64;37.94
7930;BME280;4010;42.698;23.124;2022-07-22T05:22:10;118349.16;;;-140.64;37.77
7930;BME280;4010;42.698;23.124;2022-07-22T05:24:36;118349.16;;;-140.64;36.15
7930;BME280;4010;42.698;23.124;2022-07-22T05:27:03;118349.16;;;-140.64;37.04
7930;BME280;4010;42.698;23.124;2022-07-22T05:29:31;118349.16;;;-140.64;37.13
7930;BME280;4010;42.698;23.124;2022-07-22T05:31:58;118349.16;;;-140.64;35.04
7930;BME280;4010;42.698;23.124;2022-07-22T05:34:25;118349.16;;;-140.64;37.29
7930;BME280;4010;42.698;23.124;2022-07-22T05:36:52;118349.16;;;-140.64;34.09
7930;BME280;4010;42.698;23.124;2022-07-22T05:39:19;118349.16;;;-140.64;31.37
7930;BME280;4010;42.698;23.124;2022-07-22T05:41:45;118349.16;;;-140.64;30.07
7930;BME280;4010;42.698;23.124;2022-07-22T05:44:13;118349.16;;;-140.64;30.57
7930;BME280;4010;42.698;23.124;2022-07-22T05:46:42;118349.16;;;-140.64;30.26
7930;BME280;4010;42.698;23.124;2022-07-22T05:49:08;118349.16;;;-140.64;30.57
7930;BME280;4010;42.698;23.124;2022-07-22T05:51:35;118349.16;;;-140.64;29.37
7930;BME280;4010;42.698;23.124;2022-07-22T05:54:02;118349.16;;;-140.64;29.25
7930;BME280;4010;42.698;23.124;2022-07-22T05:56:29;118349.16;;;-140.64;31.39
7930;BME280;4010;42.698;23.124;2022-07-22T05:58:56;118349.16;;;-140.64;31.27
7930;BME280;4010;42.698;23.124;2022-07-22T06:01:23;118349.16;;;-140.64;31.57
7930;BME280;4010;42.698;23.124;2022-07-22T06:03:51;118349.16;;;-140.64;31.12
7930;BME280;4010;42.698;23.124;2022-07-22T06:06:17;118349.16;;;-140.64;33.47
7930;BME280;4010;42.698;23.124;2022-07-22T06:08:45;118349.16;;;-140.64;32.31
7930;BME280;4010;42.698;23.124;2022-07-22T06:11:11;118349.16;;;-140.64;30.49
7930;BME280;4010;42.698;23.124;2022-07-22T06:13:38;118349.16;;;-140.64;30.51
7930;BME280;4010;42.698;23.124;2022-07-22T06:16:06;118349.16;;;-140.64;30.50
7930;BME280;4010;42.698;23.124;2022-07-22T06:18:33;118349.16;;;-140.64;31.37
7930;BME280;4010;42.698;23.124;2022-07-22T06:21:01;118349.16;;;-140.64;30.28
7930;BME280;4010;42.698;23.124;2022-07-22T06:23:28;118349.16;;;-140.64;28.96
7930;BME280;4010;42.698;23.124;2022-07-22T06:25:55;118349.16;;;-140.64;30.38
7930;BME280;4010;42.698;23.124;2022-07-22T06:28:21;118349.16;;;-140.64;31.06
7930;BME280;4010;42.698;23.124;2022-07-22T06:30:48;118349.16;;;-140.64;32.28
7930;BME280;4010;42.698;23.124;2022-07-22T06:33:15;118349.16;;;-140.64;30.12
7930;BME280;4010;42.698;23.124;2022-07-22T06:36:18;118349.16;;;-140.64;32.25
7930;BME280;4010;42.698;23.124;2022-07-22T06:38:44;118349.16;;;-140.64;31.52
7930;BME280;4010;42.698;23.124;2022-07-22T06:41:11;118349.16;;;-140.64;30.56
7930;BME280;4010;42.698;23.124;2022-07-22T06:43:39;118349.16;;;-140.64;32.72
7930;BME280;4010;42.698;23.124;2022-07-22T06:46:06;118349.16;;;-140.64;31.52
7930;BME280;4010;42.698;23.124;2022-07-22T06:48:32;118349.16;;;-140.64;30.95
7930;BME280;4010;42.698;23.124;2022-07-22T06:50:59;118349.16;;;-140.64;32.22
7930;BME280;4010;42.698;23.124;2022-07-22T06:53:27;118349.16;;;-140.64;30.48
7930;BME280;4010;42.698;23.124;2022-07-22T06:55:54;118349.16;;;-140.64;31.47
7930;BME280;4010;42.698;23.124;2022-07-22T06:58:21;118349.16;;;-140.64;34.00
7930;BME280;4010;42.698;23.124;2022-07-22T07:00:48;118349.16;;;-140.64;31.51
7930;BME280;4010;42.698;23.124;2022-07-22T07:03:14;118349.16;;;-140.64;32.43
7930;BME280;4010;42.698;23.124;2022-07-22T07:05:41;118349.16;;;-140.64;31.68
7930;BME280;4010;42.698;23.124;2022-07-22T07:08:08;118349.16;;;-140.64;33.25
7930;BME280;4010;42.698;23.124;2022-07-22T07:10:36;118349.16;;;-140.64;33.45
7930;BME280;4010;42.698;23.124;2022-07-22T07:13:03;118349.16;;;-140.64;33.69
7930;BME280;4010;42.698;23.124;2022-07-22T07:15:30;118349.16;;;-140.64;33.93
7930;BME280;4010;42.698;23.124;2022-07-22T07:17:57;118349.16;;;-140.64;33.72
7930;BME280;4010;42.698;23.124;2022-07-22T07:20:24;118349.16;;;-140.64;34.45
7930;BME280;4010;42.698;23.124;2022-07-22T07:22:51;118349.16;;;-140.64;34.16
7930;BME280;4010;42.698;23.124;2022-07-22T07:25:18;118349.16;;;-140.64;34.73
7930;BME280;4010;42.698;23.124;2022-07-22T07:27:47;118349.16;;;-140.64;35.85
7930;BME280;4010;42.698;23.124;2022-07-22T07:30:14;118349.16;;;-140.64;37.66
7930;BME280;4010;42.698;23.124;2022-07-22T07:32:40;118349.16;;;-140.64;41.28
7930;BME280;4010;42.698;23.124;2022-07-22T07:35:24;118349.16;;;-140.64;39.53
7930;BME280;4010;42.698;23.124;2022-07-22T07:37:51;118349.16;;;-140.64;37.80
7930;BME280;4010;42.698;23.124;2022-07-22T07:40:19;118349.16;;;-140.64;38.85
7930;BME280;4010;42.698;23.124;2022-07-22T07:42:47;118349.16;;;-140.64;35.95
7930;BME280;4010;42.698;23.124;2022-07-22T07:45:14;118349.16;;;-140.64;37.61
7930;BME280;4010;42.698;23.124;2022-07-22T07:47:41;118349.16;;;-140.64;38.98
7930;BME280;4010;42.698;23.124;2022-07-22T07:50:09;118349.16;;;-140.64;38.79
7930;BME280;4010;42.698;23.124;2022-07-22T07:52:37;118349.16;;;-140.64;40.85
7930;BME280;4010;42.698;23.124;2022-07-22T07:55:05;118349.16;;;-140.64;39.28
7930;BME280;4010;42.698;23.124;2022-07-22T07:57:32;118349.16;;;-140.64;40.13
7930;BME280;4010;42.698;23.124;2022-07-22T08:00:00;118349.16;;;-140.64;37.59
7930;BME280;4010;42.698;23.124;2022-07-22T08:02:27;118349.16;;;-140.64;35.88
7930;BME280;4010;42.698;23.124;2022-07-22T08:04:54;118349.16;;;-140.64;37.89
7930;BME280;4010;42.698;23.124;2022-07-22T08:07:20;118349.16;;;-140.64;38.49
7930;BME280;4010;42.698;23.124;2022-07-22T08:09:47;118349.16;;;-140.64;41.85
7930;BME280;4010;42.698;23.124;2022-07-22T08:12:14;118349.16;;;-140.64;40.84
7930;BME280;4010;42.698;23.124;2022-07-22T08:14:41;118349.16;;;-140.64;37.21
7930;BME280;4010;42.698;23.124;2022-07-22T08:17:09;118349.16;;;-140.64;39.95
7930;BME280;4010;42.698;23.124;2022-07-22T08:19:37;118349.16;;;-140.64;39.88
7930;BME280;4010;42.698;23.124;2022-07-22T08:22:04;118349.16;;;-140.64;39.06
7930;BME280;4010;42.698;23.124;2022-07-22T08:24:31;118349.16;;;-140.64;36.90
7930;BME280;4010;42.698;23.124;2022-07-22T08:26:58;118349.16;;;-140.64;43.34
7930;BME280;4010;42.698;23.124;2022-07-22T08:29:24;118349.16;;;-140.64;41.75
7930;BME280;4010;42.698;23.124;2022-07-22T08:31:51;118349.16;;;-140.64;38.23
7930;BME280;4010;42.698;23.124;2022-07-22T08:34:27;118349.16;;;-140.64;38.75
7930;BME280;4010;42.698;23.124;2022-07-22T08:36:54;118349.16;;;-140.64;39.00
7930;BME280;4010;42.698;23.124;2022-07-22T08:39:20;118349.16;;;-140.64;42.50
7930;BME280;4010;42.698;23.124;2022-07-22T08:41:47;118349.16;;;-140.64;38.70
7930;BME280;4010;42.698;23.124;2022-07-22T08:44:14;118349.16;;;-140.64;41.20
7930;BME280;4010;42.698;23.124;2022-07-22T08:46:43;118349.16;;;-140.64;41.15
7930;BME280;4010;42.698;23.124;2022-07-22T08:49:13;118349.16;;;-140.64;39.02
7930;BME280;4010;42.698;23.124;2022-07-22T08:51:41;118349.16;;;-140.64;38.80
7930;BME280;4010;42.698;23.124;2022-07-22T08:54:08;118349.16;;;-140.64;40.36
7930;BME280;4010;42.698;23.124;2022-07-22T08:56:35;118349.16;;;-140.64;38.91
7930;BME280;4010;42.698;23.124;2022-07-22T08:59:03;118349.16;;;-140.64;38.97
7930;BME280;4010;42.698;23.124;2022-07-22T09:04:51;118349.16;;;-140.64;40.68
7930;BME280;4010;42.698;23.124;2022-07-22T09:07:27;118349.16;;;-140.64;41.89
7930;BME280;4010;42.698;23.124;2022-07-22T09:09:56;118349.16;;;-140.64;39.83
7930;BME280;4010;42.698;23.124;2022-07-22T09:12:23;118349.16;;;-140.64;36.78
7930;BME280;4010;42.698;23.124;2022-07-22T09:14:51;118349.16;;;-140.64;42.03
7930;BME280;4010;42.698;23.124;2022-07-22T09:17:27;118349.16;;;-140.64;36.98
7930;BME280;4010;42.698;23.124;2022-07-22T09:20:15;118349.16;;;-140.64;39.10
7930;BME280;4010;42.698;23.124;2022-07-22T09:22:45;118349.16;;;-140.64;38.70
7930;BME280;4010;42.698;23.124;2022-07-22T09:25:20;118349.16;;;-140.64;40.35
7930;BME280;4010;42.698;23.124;2022-07-22T09:27:49;118349.16;;;-140.64;41.17
7930;BME280;4010;42.698;23.124;2022-07-22T09:30:17;118349.16;;;-140.64;37.59
7930;BME280;4010;42.698;23.124;2022-07-22T09:32:44;118349.16;;;-140.64;38.93
7930;BME280;4010;42.698;23.124;2022-07-22T09:35:12;118349.16;;;-140.64;37.77
7930;BME280;4010;42.698;23.124;2022-07-22T09:37:49;118349.16;;;-140.64;38.92
7930;BME280;4010;42.698;23.124;2022-07-22T09:40:17;118349.16;;;-140.64;41.51
7930;BME280;4010;42.698;23.124;2022-07-22T09:42:46;118349.16;;;-140.64;37.52
7930;BME280;4010;42.698;23.124;2022-07-22T09:45:14;118349.16;;;-140.64;37.66
7930;BME280;4010;42.698;23.124;2022-07-22T09:47:41;118349.16;;;-140.64;37.21
7930;BME280;4010;42.698;23.124;2022-07-22T09:50:16;118349.16;;;-140.64;36.48
7930;BME280;4010;42.698;23.124;2022-07-22T09:52:44;118349.16;;;-140.64;37.32
7930;BME280;4010;42.698;23.124;2022-07-22T09:55:15;118349.16;;;-140.64;41.21
7930;BME280;4010;42.698;23.124;2022-07-22T09:57:43;118349.16;;;-140.64;35.46
7930;BME280;4010;42.698;23.124;2022-07-22T10:00:11;118349.16;;;-140.64;37.03
7930;BME280;4010;42.698;23.124;2022-07-22T10:02:41;118349.16;;;-140.64;37.16
7930;BME280;4010;42.698;23.124;2022-07-22T10:05:12;118349.16;;;-140.64;37.50
7930;BME280;4010;42.698;23.124;2022-07-22T10:07:40;118349.16;;;-140.64;37.30
7930;BME280;4010;42.698;23.124;2022-07-22T10:10:12;118349.16;;;-140.64;35.65
7930;BME280;4010;42.698;23.124;2022-07-22T10:12:41;118349.16;;;-140.64;36.97
7930;BME280;4010;42.698;23.124;2022-07-22T10:15:10;118349.16;;;-140.64;38.43
7930;BME280;4010;42.698;23.124;2022-07-22T10:17:39;118349.16;;;-140.64;38.07
7930;BME280;4010;42.698;23.124;2022-07-22T10:20:08;118349.16;;;-140.64;36.63
7930;BME280;4010;42.698;23.124;2022-07-22T10:22:53;118349.16;;;-140.64;39.28
7930;BME280;4010;42.698;23.124;2022-07-22T10:25:21;118349.16;;;-140.64;37.39
7930;BME280;4010;42.698;23.124;2022-07-22T10:27:52;118349.16;;;-140.64;38.02
7930;BME280;4010;42.698;23.124;2022-07-22T10:30:21;118349.16;;;-140.64;34.76
7930;BME280;4010;42.698;23.124;2022-07-22T10:33:07;118349.16;;;-140.64;36.44
7930;BME280;4010;42.698;23.124;2022-07-22T10:35:36;118349.16;;;-140.64;38.22
7930;BME280;4010;42.698;23.124;2022-07-22T10:38:10;118349.16;;;-140.64;35.28
7930;BME280;4010;42.698;23.124;2022-07-22T10:40:52;118349.16;;;-140.64;39.79
7930;BME280;4010;42.698;23.124;2022-07-22T10:43:23;118349.16;;;-140.64;37.02
7930;BME280;4010;42.698;23.124;2022-07-22T10:45:52;118349.16;;;-140.64;37.17
7930;BME280;4010;42.698;23.124;2022-07-22T10:48:25;118349.16;;;-140.64;37.83
7930;BME280;4010;42.698;23.124;2022-07-22T10:51:11;118349.16;;;-140.64;38.01
7930;BME280;4010;42.698;23.124;2022-07-22T10:53:47;118349.16;;;-140.64;36.10
7930;BME280;4010;42.698;23.124;2022-07-22T10:56:24;118349.16;;;-140.64;36.19
7930;BME280;4010;42.698;23.124;2022-07-22T10:58:59;118349.16;;;-140.64;34.24
7930;BME280;4010;42.698;23.124;2022-07-22T11:01:28;118349.16;;;-140.64;36.99
7930;BME280;4010;42.698;23.124;2022-07-22T11:03:56;118349.16;;;-140.64;34.30
7930;BME280;4010;42.698;23.124;2022-07-22T11:06:28;118349.16;;;-140.64;34.57
7930;BME280;4010;42.698;23.124;2022-07-22T11:08:57;118349.16;;;-140.64;35.08
7930;BME280;4010;42.698;23.124;2022-07-22T11:11:44;118349.16;;;-140.64;33.45
7930;BME280;4010;42.698;23.124;2022-07-22T11:14:14;118349.16;;;-140.64;35.42
7930;BME280;4010;42.698;23.124;2022-07-22T11:16:41;118349.16;;;-140.64;33.34
7930;BME280;4010;42.698;23.124;2022-07-22T11:19:09;118349.16;;;-140.64;33.91
7930;BME280;4010;42.698;23.124;2022-07-22T11:21:36;118349.16;;;-140.64;34.04
7930;BME280;4010;42.698;23.124;2022-07-22T11:24:04;118349.16;;;-140.64;34.06
7930;BME280;4010;42.698;23.124;2022-07-22T11:26:36;118349.16;;;-140.64;33.93
7930;BME280;4010;42.698;23.124;2022-07-22T11:29:03;118349.16;;;-140.64;32.97
7930;BME280;4010;42.698;23.124;2022-07-22T11:31:32;118349.16;;;-140.64;33.74
7930;BME280;4010;42.698;23.124;2022-07-22T11:34:07;118349.16;;;-140.64;33.20
7930;BME280;4010;42.698;23.124;2022-07-22T11:36:35;118349.16;;;-140.64;34.99
7930;BME280;4010;42.698;23.124;2022-07-22T11:39:03;118349.16;;;-140.64;32.10
7930;BME280;4010;42.698;23.124;2022-07-22T11:41:31;118349.16;;;-140.64;32.15
7930;BME280;4010;42.698;23.124;2022-07-22T11:43:59;118349.16;;;-140.64;34.38
7930;BME280;4010;42.698;23.124;2022-07-22T11:46:26;118349.16;;;-140.64;31.54
7930;BME280;4010;42.698;23.124;2022-07-22T11:48:55;118349.16;;;-140.64;31.60
7930;BME280;4010;42.698;23.124;2022-07-22T11:51:28;118349.16;;;-140.64;30.99
7930;BME280;4010;42.698;23.124;2022-07-22T11:53:56;118349.16;;;-140.64;30.05
7930;BME280;4010;42.698;23.124;2022-07-22T11:56:23;118349.16;;;-140.64;30.76
7930;BME280;4010;42.698;23.124;2022-07-22T11:58:50;118349.16;;;-140.64;29.86
7930;BME280;4010;42.698;23.124;2022-07-22T12:01:20;118349.16;;;-140.64;32.27
7930;BME280;4010;42.698;23.124;2022-07-22T12:03:50;118349.16;;;-140.64;30.89
7930;BME280;4010;42.698;23.124;2022-07-22T12:06:20;118349.16;;;-140.64;33.40
7930;BME280;4010;42.698;23.124;2022-07-22T12:08:50;118349.16;;;-140.64;32.09
7930;BME280;4010;42.698;23.124;2022-07-22T12:11:18;118349.16;;;-140.64;31.87
7930;BME280;4010;42.698;23.124;2022-07-22T12:13:47;118349.16;;;-140.64;31.94
7930;BME280;4010;42.698;23.124;2022-07-22T12:16:23;118349.16;;;-140.64;31.23
7930;BME280;4010;42.698;23.124;2022-07-22T12:18:56;118349.16;;;-140.64;32.29
7930;BME280;4010;42.698;23.124;2022-07-22T12:21:26;118349.16;;;-140.64;32.42
7930;BME280;4010;42.698;23.124;2022-07-22T12:23:56;118349.16;;;-140.64;33.64
7930;BME280;4010;42.698;23.124;2022-07-22T12:26:40;118349.16;;;-140.64;32.42
7930;BME280;4010;42.698;23.124;2022-07-22T12:29:20;118349.16;;;-140.64;32.43
7930;BME280;4010;42.698;23.124;2022-07-22T12:31:48;118349.16;;;-140.64;33.07
7930;BME280;4010;42.698;23.124;2022-07-22T12:34:16;118349.16;;;-140.64;32.91
7930;BME280;4010;42.698;23.124;2022-07-22T12:36:46;118349.16;;;-140.64;31.15
7930;BME280;4010;42.698;23.124;2022-07-22T12:39:17;118349.16;;;-140.64;31.95
7930;BME280;4010;42.698;23.124;2022-07-22T12:41:49;118349.16;;;-140.64;32.30
7930;BME280;4010;42.698;23.124;2022-07-22T12:44:24;118349.16;;;-140.64;32.03
7930;BME280;4010;42.698;23.124;2022-07-22T12:46:52;118349.16;;;-140.64;32.65
7930;BME280;4010;42.698;23.124;2022-07-22T12:49:21;118349.16;;;-140.64;31.85